createdAt,value
2023-02-22T00:01:07.410Z,0.93
2023-02-22T00:03:34.836Z,1.02
2023-02-22T00:06:04.966Z,0.80
2023-02-22T00:08:34.549Z,1.10
2023-02-22T00:11:04.184Z,1.10
2023-02-22T00:13:30.920Z,1.05
2023-02-22T00:15:58.857Z,1.02
2023-02-22T00:18:29.454Z,0.90
2023-02-22T00:21:00.580Z,0.98
2023-02-22T00:23:29.930Z,0.90
2023-02-22T00:25:58.044Z,1.00
2023-02-22T00:28:25.754Z,0.93
2023-02-22T00:30:52.787Z,0.73
2023-02-22T00:33:21.003Z,1.20
2023-02-22T00:35:47.690Z,1.17
2023-02-22T00:38:17.002Z,1.25
2023-02-22T00:40:45.219Z,1.00
2023-02-22T00:43:11.918Z,1.15
2023-02-22T00:45:38.729Z,1.42
2023-02-22T00:48:06.473Z,2.20
2023-02-22T00:50:33.225Z,1.40
2023-02-22T00:53:03.833Z,1.40
2023-02-22T00:55:33.314Z,1.13
2023-02-22T00:58:01.944Z,1.27
2023-02-22T01:00:38.510Z,1.30
2023-02-22T01:03:10.590Z,1.10
2023-02-22T01:08:09.586Z,1.23
2023-02-22T01:10:37.498Z,1.48
2023-02-22T01:13:08.734Z,1.17
2023-02-22T01:15:38.433Z,0.88
2023-02-22T01:18:05.867Z,1.30
2023-02-22T01:20:33.078Z,1.40
2023-02-22T01:23:01.369Z,1.15
2023-02-22T01:25:31.345Z,1.33
2023-02-22T01:28:00.018Z,1.45
2023-02-22T01:30:30.339Z,1.38
2023-02-22T01:32:58.008Z,1.25
2023-02-22T01:35:32.848Z,1.70
2023-02-22T01:37:59.834Z,1.60
2023-02-22T01:40:32.758Z,1.30
2023-02-22T01:43:03.083Z,0.98
2023-02-22T01:45:29.952Z,1.20
2023-02-22T01:48:00.785Z,1.20
2023-02-22T01:50:29.071Z,1.20
2023-02-22T01:52:56.286Z,1.08
2023-02-22T01:55:23.491Z,1.35
2023-02-22T01:57:50.205Z,1.65
2023-02-22T02:00:22.067Z,1.20
2023-02-22T02:02:54.492Z,1.10
2023-02-22T02:05:24.705Z,1.70
2023-02-22T02:07:52.591Z,1.40
2023-02-22T02:10:21.507Z,1.20
2023-02-22T02:12:51.216Z,1.40
2023-02-22T02:15:28.826Z,1.55
2023-02-22T02:18:00.652Z,1.27
2023-02-22T02:20:42.115Z,1.45
2023-02-22T02:23:36.131Z,1.60
2023-02-22T02:26:24.131Z,1.40
2023-02-22T02:29:08.865Z,1.23
2023-02-22T02:32:09.381Z,1.13
2023-02-22T02:35:04.274Z,1.40
2023-02-22T02:40:23.984Z,1.38
2023-02-22T02:43:03.481Z,1.52
2023-02-22T02:45:46.407Z,1.60
2023-02-22T02:48:15.571Z,1.73
2023-02-22T02:50:48.469Z,2.05
2023-02-22T02:53:20.923Z,1.35
2023-02-22T02:58:21.857Z,1.50
2023-02-22T03:00:55.573Z,1.70
2023-02-22T03:03:41.409Z,1.65
2023-02-22T03:06:29.727Z,1.67
2023-02-22T03:09:03.563Z,1.60
2023-02-22T03:12:07.736Z,1.38
2023-02-22T03:15:08.109Z,1.10
2023-02-22T03:18:07.270Z,1.33
2023-02-22T03:20:58.242Z,1.30
2023-02-22T03:23:45.924Z,1.42
2023-02-22T03:26:39.594Z,1.40
2023-02-22T03:29:09.804Z,1.23
2023-02-22T03:31:42.656Z,1.45
2023-02-22T03:34:19.281Z,1.38
2023-02-22T03:36:52.162Z,2.05
2023-02-22T03:39:20.283Z,1.40
2023-02-22T03:41:51.561Z,1.38
2023-02-22T03:44:27.485Z,1.20
2023-02-22T03:46:59.255Z,1.58
2023-02-22T03:49:37.343Z,1.90
2023-02-22T03:52:07.892Z,1.67
2023-02-22T03:54:35.781Z,1.67
2023-02-22T03:57:22.666Z,1.55
2023-02-22T04:00:00.693Z,1.42
2023-02-22T04:02:27.424Z,1.20
2023-02-22T04:04:54.200Z,1.38
2023-02-22T04:07:20.891Z,1.20
2023-02-22T04:09:48.716Z,1.30
2023-02-22T04:12:15.863Z,1.10
2023-02-22T04:14:53.896Z,1.23
2023-02-22T04:17:20.703Z,1.27
2023-02-22T04:19:48.078Z,1.23
2023-02-22T04:22:15.052Z,1.30
2023-02-22T04:24:41.819Z,1.42
2023-02-22T04:27:08.501Z,1.35
2023-02-22T04:29:37.404Z,1.30
2023-02-22T04:32:06.880Z,1.25
2023-02-22T04:34:33.809Z,1.38
2023-02-22T04:37:00.479Z,1.35
2023-02-22T04:39:27.452Z,1.65
2023-02-22T04:41:54.372Z,1.27
2023-02-22T04:44:21.041Z,1.35
2023-02-22T04:46:47.944Z,1.38
2023-02-22T04:49:16.329Z,1.73
2023-02-22T04:51:44.355Z,1.35
2023-02-22T04:54:13.578Z,1.80
2023-02-22T04:56:44.791Z,1.67
2023-02-22T04:59:11.485Z,2.33
2023-02-22T05:01:40.104Z,2.17
2023-02-22T05:04:07.570Z,1.52
2023-02-22T05:06:34.627Z,1.48
2023-02-22T05:09:01.282Z,1.25
2023-02-22T05:11:28.204Z,1.45
2023-02-22T05:13:54.958Z,1.70
2023-02-22T05:16:22.152Z,1.67
2023-02-22T05:18:49.022Z,1.65
2023-02-22T05:21:16.110Z,2.03
2023-02-22T05:23:43.066Z,2.00
2023-02-22T05:26:11.624Z,1.90
2023-02-22T05:28:38.949Z,1.60
2023-02-22T05:31:07.306Z,1.88
2023-02-22T05:33:34.308Z,1.85
2023-02-22T05:36:01.142Z,2.10
2023-02-22T05:38:28.520Z,2.28
2023-02-22T05:40:55.299Z,1.83
2023-02-22T05:43:22.061Z,2.20
2023-02-22T05:45:48.862Z,2.28
2023-02-22T05:48:15.987Z,2.25
2023-02-22T05:50:43.890Z,1.95
2023-02-22T05:53:10.911Z,2.00
2023-02-22T05:55:37.956Z,4.13
2023-02-22T05:58:05.884Z,2.75
2023-02-22T06:00:33.258Z,3.80
2023-02-22T06:03:05.759Z,2.80
2023-02-22T06:08:00.531Z,1.60
2023-02-22T06:10:28.199Z,1.90
2023-02-22T06:12:55.418Z,1.42
2023-02-22T06:15:24.670Z,2.10
2023-02-22T06:17:52.555Z,2.00
2023-02-22T06:20:22.757Z,1.90
2023-02-22T06:22:51.497Z,5.95
2023-02-22T06:25:21.196Z,5.80
2023-02-22T06:27:48.202Z,8.27
2023-02-22T06:30:17.058Z,12.23
2023-02-22T06:32:43.697Z,11.05
2023-02-22T06:35:10.400Z,4.85
2023-02-22T06:37:38.665Z,5.75
2023-02-22T06:40:06.063Z,5.60
2023-02-22T06:42:33.109Z,5.13
2023-02-22T06:45:00.245Z,5.20
2023-02-22T06:47:27.169Z,2.42
2023-02-22T06:49:55.364Z,1.58
2023-02-22T06:52:22.736Z,2.03
2023-02-22T06:54:50.257Z,1.80
2023-02-22T06:57:17.391Z,2.00
2023-02-22T06:59:44.367Z,3.38
2023-02-22T07:02:12.311Z,2.15
2023-02-22T07:04:41.704Z,2.50
2023-02-22T07:07:09.924Z,2.95
2023-02-22T07:09:36.565Z,2.83
2023-02-22T07:12:03.529Z,3.05
2023-02-22T07:14:30.240Z,2.72
2023-02-22T07:16:56.899Z,1.95
2023-02-22T07:19:24.707Z,3.17
2023-02-22T07:21:58.991Z,6.03
2023-02-22T07:24:28.280Z,7.82
2023-02-22T07:26:55.143Z,7.65
2023-02-22T07:29:22.500Z,7.03
2023-02-22T07:31:49.502Z,8.02
2023-02-22T07:34:16.301Z,11.40
2023-02-22T07:36:43.082Z,10.32
2023-02-22T07:39:09.717Z,7.78
2023-02-22T07:41:36.446Z,5.93
2023-02-22T07:44:12.916Z,5.88
2023-02-22T07:46:39.644Z,7.15
2023-02-22T07:49:06.368Z,5.35
2023-02-22T07:51:33.113Z,4.90
2023-02-22T07:53:59.787Z,4.55
2023-02-22T07:56:26.445Z,3.42
2023-02-22T07:58:53.089Z,4.13
2023-02-22T08:01:19.948Z,3.25
2023-02-22T08:03:47.589Z,2.80
2023-02-22T08:06:14.396Z,2.63
2023-02-22T08:08:41.096Z,3.20
2023-02-22T08:11:07.792Z,4.03
2023-02-22T08:13:34.757Z,4.13
2023-02-22T08:16:01.418Z,3.20
2023-02-22T08:18:28.081Z,4.68
2023-02-22T08:20:54.898Z,5.40
2023-02-22T08:23:25.134Z,6.70
2023-02-22T08:25:51.881Z,6.53
2023-02-22T08:28:22.424Z,5.65
2023-02-22T08:30:49.687Z,4.43
2023-02-22T08:33:19.386Z,4.00
2023-02-22T08:35:49.568Z,4.88
2023-02-22T08:38:22.885Z,5.25
2023-02-22T08:40:50.433Z,5.05
2023-02-22T08:43:18.329Z,5.68
2023-02-22T08:45:45.970Z,4.80
2023-02-22T08:48:14.041Z,4.43
2023-02-22T08:50:41.850Z,3.80
2023-02-22T08:53:10.327Z,3.17
2023-02-22T08:55:39.138Z,2.78
2023-02-22T08:58:09.231Z,2.47
2023-02-22T09:00:38.682Z,2.10
2023-02-22T09:03:09.008Z,2.35
2023-02-22T09:05:36.432Z,2.55
2023-02-22T09:08:03.319Z,2.53
2023-02-22T09:10:32.750Z,2.72
2023-02-22T09:13:03.972Z,2.67
2023-02-22T09:15:31.910Z,3.38
2023-02-22T09:17:59.245Z,3.20
2023-02-22T09:20:26.196Z,2.65
2023-02-22T09:22:53.788Z,2.38
2023-02-22T09:25:21.262Z,2.22
2023-02-22T09:27:49.801Z,2.30
2023-02-22T09:30:20.667Z,2.47
2023-02-22T09:32:47.588Z,2.75
2023-02-22T09:35:14.510Z,2.97
2023-02-22T09:37:44.878Z,2.92
2023-02-22T09:40:24.828Z,2.42
2023-02-22T09:43:31.126Z,2.63
2023-02-22T09:46:13.461Z,2.28
2023-02-22T09:49:15.539Z,2.30
2023-02-22T09:52:03.477Z,1.77
2023-02-22T09:55:04.728Z,1.80
2023-02-22T09:57:36.829Z,1.77
2023-02-22T10:00:21.211Z,1.65
2023-02-22T10:03:21.306Z,1.73
2023-02-22T10:06:10.875Z,1.27
2023-02-22T10:08:38.799Z,1.85
2023-02-22T10:11:40.478Z,1.65
2023-02-22T10:14:48.127Z,1.42
2023-02-22T10:17:21.380Z,1.45
2023-02-22T10:20:07.007Z,1.52
2023-02-22T10:22:57.319Z,1.80
2023-02-22T10:25:27.414Z,1.40
2023-02-22T10:28:20.861Z,1.70
2023-02-22T10:30:56.534Z,1.70
2023-02-22T10:33:37.594Z,1.52
2023-02-22T10:36:04.371Z,1.60
2023-02-22T10:38:34.160Z,2.10
2023-02-22T10:41:24.964Z,1.70
2023-02-22T10:43:51.649Z,1.50
2023-02-22T10:46:22.273Z,1.80
2023-02-22T10:48:54.086Z,2.30
2023-02-22T10:51:21.188Z,2.23
2023-02-22T10:54:02.370Z,1.92
2023-02-22T10:56:29.065Z,1.90
2023-02-22T10:59:02.368Z,1.88
2023-02-22T11:01:32.962Z,1.92
2023-02-22T11:04:02.599Z,1.08
2023-02-22T11:06:31.348Z,1.23
2023-02-22T11:09:15.411Z,1.13
2023-02-22T11:11:47.498Z,1.00
2023-02-22T11:14:28.713Z,1.10
2023-02-22T11:17:00.804Z,1.00
2023-02-22T11:19:32.851Z,1.20
2023-02-22T11:22:09.730Z,1.27
2023-02-22T11:24:50.489Z,1.30
2023-02-22T11:27:26.977Z,1.65
2023-02-22T11:29:56.756Z,1.45
2023-02-22T11:32:24.508Z,1.88
2023-02-22T11:35:03.467Z,1.90
2023-02-22T11:37:36.899Z,1.92
2023-02-22T11:40:22.271Z,1.60
2023-02-22T11:43:05.517Z,2.08
2023-02-22T11:45:32.919Z,1.95
2023-02-22T11:48:02.135Z,1.98
2023-02-22T11:50:33.517Z,2.85
2023-02-22T11:53:44.815Z,3.38
2023-02-22T11:56:36.841Z,3.60
2023-02-22T11:59:16.728Z,4.13
2023-02-22T12:01:55.495Z,4.53
2023-02-22T12:04:46.474Z,4.10
2023-02-22T12:07:25.527Z,4.65
2023-02-22T12:10:19.176Z,4.70
2023-02-22T12:13:05.919Z,5.82
2023-02-22T12:15:50.797Z,5.68
2023-02-22T12:18:29.977Z,5.57
2023-02-22T12:21:08.273Z,5.53
2023-02-22T12:24:03.926Z,5.53
2023-02-22T12:26:36.383Z,4.97
2023-02-22T12:29:20.856Z,5.45
2023-02-22T12:31:54.835Z,5.38
2023-02-22T12:34:30.282Z,5.25
2023-02-22T12:37:22.371Z,5.25
2023-02-22T12:40:06.115Z,6.07
2023-02-22T12:42:49.614Z,5.15
2023-02-22T12:45:32.016Z,5.60
2023-02-22T12:48:18.293Z,6.28
2023-02-22T12:50:47.233Z,5.78
2023-02-22T12:53:35.062Z,6.15
2023-02-22T12:56:19.513Z,6.35
2023-02-22T12:59:12.254Z,7.50
2023-02-22T13:01:46.257Z,7.10
2023-02-22T13:04:20.485Z,7.55
2023-02-22T13:07:03.311Z,7.82
2023-02-22T13:09:50.054Z,8.10
2023-02-22T13:12:24.676Z,8.30
2023-02-22T13:15:33.575Z,7.53
2023-02-22T13:18:19.689Z,7.18
2023-02-22T13:20:59.560Z,8.27
2023-02-22T13:23:48.729Z,7.45
2023-02-22T13:26:35.624Z,8.20
2023-02-22T13:29:16.370Z,7.95
2023-02-22T13:32:07.535Z,7.70
2023-02-22T13:35:19.110Z,8.00
2023-02-22T13:38:19.277Z,8.38
2023-02-22T13:41:02.017Z,8.38
2023-02-22T13:46:35.362Z,8.60
2023-02-22T13:49:35.408Z,9.32
2023-02-22T13:52:08.543Z,8.65
2023-02-22T13:54:37.988Z,8.63
2023-02-22T13:57:17.047Z,9.05
2023-02-22T13:59:44.040Z,8.60
2023-02-22T14:02:53.214Z,9.30
2023-02-22T14:05:41.663Z,8.55
2023-02-22T14:08:28.764Z,8.82
2023-02-22T14:10:57.542Z,8.93
2023-02-22T14:14:00.700Z,9.60
2023-02-22T14:19:13.200Z,7.53
2023-02-22T14:22:03.382Z,8.23
2023-02-22T14:24:45.368Z,7.80
2023-02-22T14:27:13.605Z,8.77
2023-02-22T14:29:55.550Z,8.25
2023-02-22T14:32:31.542Z,8.10
2023-02-22T14:35:04.325Z,8.70
2023-02-22T14:37:41.091Z,8.35
2023-02-22T14:40:26.783Z,8.65
2023-02-22T14:43:22.645Z,8.52
2023-02-22T14:45:53.494Z,8.80
2023-02-22T14:48:39.379Z,7.45
2023-02-22T14:51:31.228Z,7.72
2023-02-22T14:54:13.183Z,7.10
2023-02-22T14:56:49.067Z,7.77
2023-02-22T14:59:25.241Z,7.63
2023-02-22T15:02:11.809Z,8.30
2023-02-22T15:04:42.266Z,7.68
2023-02-22T15:07:21.354Z,7.60
2023-02-22T15:09:48.429Z,7.47
2023-02-22T15:12:26.568Z,7.95
2023-02-22T15:15:16.639Z,7.10
2023-02-22T15:17:46.103Z,6.70
2023-02-22T15:20:16.553Z,7.25
2023-02-22T15:22:43.633Z,8.50
2023-02-22T15:25:12.135Z,7.20
2023-02-22T15:27:45.753Z,6.93
2023-02-22T15:30:26.416Z,6.95
2023-02-22T15:33:04.265Z,5.90
2023-02-22T15:35:33.472Z,6.57
2023-02-22T15:38:07.401Z,6.18
2023-02-22T15:40:35.369Z,5.10
2023-02-22T15:43:05.246Z,5.95
2023-02-22T15:45:32.387Z,5.63
2023-02-22T15:47:59.182Z,6.38
2023-02-22T15:50:34.186Z,6.03
2023-02-22T15:53:23.671Z,5.85
2023-02-22T15:55:57.468Z,6.90
2023-02-22T15:58:28.744Z,7.43
2023-02-22T16:01:19.638Z,8.00
2023-02-22T16:03:49.363Z,6.90
2023-02-22T16:06:35.369Z,5.88
2023-02-22T16:09:18.991Z,5.90
2023-02-22T16:11:46.995Z,6.30
2023-02-22T16:14:42.669Z,5.97
2023-02-22T16:17:37.167Z,5.35
2023-02-22T16:20:13.224Z,6.95
2023-02-22T16:22:45.564Z,6.05
2023-02-22T16:25:18.380Z,5.85
2023-02-22T16:27:52.663Z,6.85
2023-02-22T16:30:35.975Z,6.63
2023-02-22T16:33:13.661Z,5.65
2023-02-22T16:35:41.037Z,6.03
2023-02-22T16:38:16.601Z,6.65
2023-02-22T16:40:52.206Z,6.63
2023-02-22T16:43:22.506Z,5.32
2023-02-22T16:45:49.289Z,5.50
2023-02-22T16:48:20.706Z,6.00
2023-02-22T16:50:52.989Z,6.38
2023-02-22T16:53:22.606Z,6.82
2023-02-22T16:55:57.376Z,9.00
2023-02-22T16:58:27.820Z,11.38
2023-02-22T17:00:57.236Z,10.10
2023-02-22T17:03:24.770Z,7.85
2023-02-22T17:05:52.006Z,6.47
2023-02-22T17:08:18.868Z,6.00
2023-02-22T17:10:46.319Z,6.53
2023-02-22T17:13:23.074Z,6.55
2023-02-22T17:15:51.460Z,6.47
2023-02-22T17:18:22.782Z,6.35
2023-02-22T17:20:54.884Z,13.95
2023-02-22T17:23:22.956Z,14.40
2023-02-22T17:25:59.185Z,13.02
2023-02-22T17:28:26.440Z,7.90
2023-02-22T17:30:55.857Z,8.18
2023-02-22T17:33:27.361Z,9.35
2023-02-22T17:35:56.216Z,11.82
2023-02-22T17:38:23.089Z,12.77
2023-02-22T17:40:54.677Z,15.50
2023-02-22T17:43:22.596Z,10.83
2023-02-22T17:45:49.418Z,6.93
2023-02-22T17:48:17.605Z,7.25
2023-02-22T17:50:46.589Z,9.45
2023-02-22T17:53:14.011Z,14.63
2023-02-22T17:55:42.561Z,17.40
2023-02-22T17:58:14.613Z,15.00
2023-02-22T18:00:49.499Z,17.33
2023-02-22T18:03:21.697Z,13.98
2023-02-22T18:05:50.428Z,15.60
2023-02-22T18:08:17.180Z,14.65
2023-02-22T18:10:44.953Z,13.70
2023-02-22T18:13:19.584Z,11.88
2023-02-22T18:15:47.040Z,30.55
2023-02-22T18:18:17.677Z,38.33
2023-02-22T18:20:46.396Z,78.57
2023-02-22T18:23:16.158Z,33.58
2023-02-22T18:26:07.670Z,16.40
2023-02-22T18:28:36.596Z,16.30
2023-02-22T18:31:14.332Z,19.50
2023-02-22T18:33:45.695Z,16.80
2023-02-22T18:36:14.210Z,16.20
2023-02-22T18:38:43.070Z,11.50
2023-02-22T18:41:15.494Z,8.25
2023-02-22T18:43:42.758Z,7.80
2023-02-22T18:46:13.485Z,8.77
2023-02-22T18:48:40.494Z,8.13
2023-02-22T18:51:10.263Z,9.38
2023-02-22T18:53:38.763Z,15.52
2023-02-22T18:56:11.559Z,18.95
2023-02-22T18:58:38.836Z,13.32
2023-02-22T19:01:06.849Z,9.55
2023-02-22T19:03:37.911Z,9.57
2023-02-22T19:06:09.703Z,9.70
2023-02-22T19:08:40.819Z,9.27
2023-02-22T19:11:19.277Z,11.27
2023-02-22T19:13:47.625Z,13.07
2023-02-22T19:16:16.628Z,11.52
2023-02-22T19:18:44.074Z,9.90
2023-02-22T19:21:13.808Z,10.90
2023-02-22T19:23:48.098Z,10.88
2023-02-22T19:26:21.088Z,9.80
2023-02-22T19:28:48.652Z,9.52
2023-02-22T19:31:18.595Z,10.15
2023-02-22T19:33:47.802Z,9.68
2023-02-22T19:36:15.504Z,10.93
2023-02-22T19:38:43.190Z,9.40
2023-02-22T19:41:19.126Z,13.35
2023-02-22T19:43:47.139Z,17.05
2023-02-22T19:46:13.898Z,15.00
2023-02-22T19:48:41.184Z,11.88
2023-02-22T19:51:12.857Z,9.10
2023-02-22T19:53:40.896Z,9.27
2023-02-22T19:56:13.577Z,8.57
2023-02-22T19:58:41.169Z,9.15
2023-02-22T20:01:25.408Z,7.95
2023-02-22T20:03:59.705Z,9.18
2023-02-22T20:06:34.722Z,9.00
2023-02-22T20:09:02.492Z,9.18
2023-02-22T20:11:29.394Z,8.77
2023-02-22T20:13:56.075Z,8.90
2023-02-22T20:16:24.156Z,8.50
2023-02-22T20:18:51.237Z,9.48
2023-02-22T20:21:38.276Z,8.63
2023-02-22T20:24:11.846Z,9.27
2023-02-22T20:26:39.747Z,10.07
2023-02-22T20:29:07.609Z,9.52
2023-02-22T20:31:34.793Z,8.93
2023-02-22T20:34:02.680Z,9.55
2023-02-22T20:36:30.402Z,8.75
2023-02-22T20:38:59.643Z,8.50
2023-02-22T20:41:29.535Z,9.13
2023-02-22T20:43:57.214Z,9.23
2023-02-22T20:46:25.479Z,7.88
2023-02-22T20:48:56.781Z,9.25
2023-02-22T20:51:24.132Z,8.85
2023-02-22T20:53:51.345Z,9.00
2023-02-22T20:56:21.371Z,9.02
2023-02-22T20:58:48.459Z,10.55
2023-02-22T21:01:17.543Z,10.50
2023-02-22T21:03:45.302Z,10.70
2023-02-22T21:06:17.699Z,9.43
2023-02-22T21:08:49.145Z,10.40
2023-02-22T21:11:18.710Z,9.88
2023-02-22T21:13:46.171Z,9.88
2023-02-22T21:16:18.761Z,9.77
2023-02-22T21:21:12.549Z,12.40
2023-02-22T21:23:40.654Z,13.40
2023-02-22T21:26:13.316Z,11.88
2023-02-22T21:28:51.000Z,9.18
2023-02-22T21:31:23.696Z,10.05
2023-02-22T21:33:55.943Z,10.02
2023-02-22T21:36:27.084Z,7.30
2023-02-22T21:38:56.475Z,10.52
2023-02-22T21:41:27.469Z,10.60
2023-02-22T21:43:55.933Z,10.57
2023-02-22T21:46:23.834Z,10.23
2023-02-22T21:48:51.052Z,9.52
2023-02-22T21:51:21.073Z,11.15
2023-02-22T21:53:52.065Z,11.10
2023-02-22T21:56:23.698Z,10.25
2023-02-22T21:58:58.993Z,9.55
2023-02-22T22:01:28.390Z,9.40
2023-02-22T22:03:56.428Z,10.60
2023-02-22T22:06:23.163Z,9.50
2023-02-22T22:08:50.354Z,9.63
2023-02-22T22:11:17.941Z,9.93
2023-02-22T22:13:45.270Z,10.32
2023-02-22T22:16:14.756Z,9.25
2023-02-22T22:18:42.744Z,9.30
2023-02-22T22:21:17.350Z,9.13
2023-02-22T22:23:47.024Z,9.68
2023-02-22T22:26:16.861Z,9.50
2023-02-22T22:28:49.220Z,10.38
2023-02-22T22:31:19.443Z,10.85
2023-02-22T22:33:47.117Z,10.27
2023-02-22T22:36:16.039Z,10.15
2023-02-22T22:38:46.812Z,11.48
2023-02-22T22:41:15.364Z,10.57
2023-02-22T22:43:45.982Z,9.55
2023-02-22T22:46:14.823Z,10.05
2023-02-22T22:48:41.614Z,10.38
2023-02-22T22:51:11.802Z,9.90
2023-02-22T22:53:41.412Z,10.43
2023-02-22T22:56:14.515Z,8.98
2023-02-22T22:58:46.121Z,10.40
2023-02-22T23:01:18.346Z,10.02
2023-02-22T23:03:59.855Z,10.00
2023-02-22T23:06:32.897Z,9.77
2023-02-22T23:09:11.194Z,9.80
2023-02-22T23:11:44.496Z,9.23
2023-02-22T23:14:14.784Z,10.07
2023-02-22T23:16:42.631Z,10.77
2023-02-22T23:19:09.482Z,10.23
2023-02-22T23:21:36.576Z,9.90
2023-02-22T23:24:07.447Z,10.23
2023-02-22T23:26:34.904Z,11.07
2023-02-22T23:29:02.502Z,10.65
2023-02-22T23:31:29.690Z,10.30
2023-02-22T23:33:58.894Z,10.00
2023-02-22T23:36:26.877Z,10.00
2023-02-22T23:38:54.209Z,9.95
2023-02-22T23:41:24.898Z,9.30
2023-02-22T23:43:51.696Z,11.50
2023-02-22T23:46:18.949Z,9.70
2023-02-22T23:48:51.138Z,9.82
2023-02-22T23:51:20.954Z,9.95
2023-02-22T23:53:48.980Z,10.27
2023-02-22T23:56:21.824Z,9.45
2023-02-22T23:58:50.430Z,9.70
